sensor_id;sensor_type;location;lat;lon;timestamp;pressure;altitude;pressure_sealevel;temperature;humidity
75006;BME280;63553;51.814;4.600;2023-06-19T00:00:39;100928.16;;;23.02;56.21
75006;BME280;63553;51.814;4.600;2023-06-19T00:03:05;100916.41;;;23.46;54.37
75006;BME280;63553;51.814;4.600;2023-06-19T00:05:30;100923.28;;;22.78;57.54
75006;BME280;63553;51.814;4.600;2023-06-19T00:07:55;100926.56;;;23.19;55.32
75006;BME280;63553;51.814;4.600;2023-06-19T00:10:21;100926.06;;;22.50;58.15
75006;BME280;63553;51.814;4.600;2023-06-19T00:12:46;100924.13;;;23.10;55.94
75006;BME280;63553;51.814;4.600;2023-06-19T00:15:12;100921.63;;;22.59;58.37
75006;BME280;63553;51.814;4.600;2023-06-19T00:17:37;100936.91;;;22.27;59.94
75006;BME280;63553;51.814;4.600;2023-06-19T00:20:04;100933.75;;;22.53;59.20
75006;BME280;63553;51.814;4.600;2023-06-19T00:22:31;100928.19;;;21.84;62.27
75006;BME280;63553;51.814;4.600;2023-06-19T00:24:56;100933.94;;;21.95;62.02
75006;BME280;63553;51.814;4.600;2023-06-19T00:27:21;100927.16;;;22.13;60.95
75006;BME280;63553;51.814;4.600;2023-06-19T00:29:47;100929.31;;;22.62;59.13
75006;BME280;63553;51.814;4.600;2023-06-19T00:32:12;100938.97;;;22.37;60.70
75006;BME280;63553;51.814;4.600;2023-06-19T00:34:38;100941.91;;;22.65;59.12
75006;BME280;63553;51.814;4.600;2023-06-19T00:37:04;100947.47;;;22.37;60.49
75006;BME280;63553;51.814;4.600;2023-06-19T00:39:29;100943.06;;;22.60;59.49
75006;BME280;63553;51.814;4.600;2023-06-19T00:41:55;100943.69;;;22.04;62.03
75006;BME280;63553;51.814;4.600;2023-06-19T00:44:22;100940.09;;;22.11;62.69
75006;BME280;63553;51.814;4.600;2023-06-19T00:46:51;100932.69;;;21.89;63.73
75006;BME280;63553;51.814;4.600;2023-06-19T00:49:16;100937.63;;;22.09;63.26
75006;BME280;63553;51.814;4.600;2023-06-19T00:51:42;100939.78;;;22.37;61.41
75006;BME280;63553;51.814;4.600;2023-06-19T00:54:08;100941.47;;;22.59;61.13
75006;BME280;63553;51.814;4.600;2023-06-19T00:56:37;100937.50;;;22.99;59.68
75006;BME280;63553;51.814;4.600;2023-06-19T00:59:06;100939.47;;;22.78;60.54
75006;BME280;63553;51.814;4.600;2023-06-19T01:01:32;100941.56;;;22.95;59.91
75006;BME280;63553;51.814;4.600;2023-06-19T01:03:58;100928.97;;;22.85;60.54
75006;BME280;63553;51.814;4.600;2023-06-19T01:06:26;100941.44;;;22.56;61.98
75006;BME280;63553;51.814;4.600;2023-06-19T01:09:01;100941.56;;;22.95;60.12
75006;BME280;63553;51.814;4.600;2023-06-19T01:11:32;100945.97;;;22.78;61.37
75006;BME280;63553;51.814;4.600;2023-06-19T01:14:01;100943.81;;;22.40;62.78
75006;BME280;63553;51.814;4.600;2023-06-19T01:16:29;100939.25;;;22.07;64.14
75006;BME280;63553;51.814;4.600;2023-06-19T01:18:55;100943.81;;;22.36;62.64
75006;BME280;63553;51.814;4.600;2023-06-19T01:21:21;100944.16;;;22.24;63.43
75006;BME280;63553;51.814;4.600;2023-06-19T01:23:46;100941.34;;;22.21;63.64
75006;BME280;63553;51.814;4.600;2023-06-19T01:26:12;100950.84;;;21.84;65.05
75006;BME280;63553;51.814;4.600;2023-06-19T01:28:40;100936.91;;;22.27;63.26
75006;BME280;63553;51.814;4.600;2023-06-19T01:31:17;100941.06;;;21.75;65.66
75006;BME280;63553;51.814;4.600;2023-06-19T01:33:45;100937.38;;;22.50;62.44
75006;BME280;63553;51.814;4.600;2023-06-19T01:36:12;100935.72;;;22.31;63.47
75006;BME280;63553;51.814;4.600;2023-06-19T01:38:40;100936.25;;;22.79;61.34
75006;BME280;63553;51.814;4.600;2023-06-19T01:41:07;100932.16;;;22.59;62.65
75006;BME280;63553;51.814;4.600;2023-06-19T01:43:33;100934.28;;;23.22;59.52
75006;BME280;63553;51.814;4.600;2023-06-19T01:45:59;100939.50;;;22.99;60.98
75006;BME280;63553;51.814;4.600;2023-06-19T01:48:26;100932.59;;;22.79;61.64
75006;BME280;63553;51.814;4.600;2023-06-19T01:50:51;100940.72;;;23.01;60.80
75006;BME280;63553;51.814;4.600;2023-06-19T01:53:17;100945.41;;;22.27;64.37
75006;BME280;63553;51.814;4.600;2023-06-19T01:55:43;100949.53;;;22.50;63.23
75006;BME280;63553;51.814;4.600;2023-06-19T01:58:08;100948.69;;;22.36;63.97
75006;BME280;63553;51.814;4.600;2023-06-19T02:00:33;100942.22;;;22.39;63.56
75006;BME280;63553;51.814;4.600;2023-06-19T02:03:02;100952.75;;;22.38;63.48
75006;BME280;63553;51.814;4.600;2023-06-19T02:05:27;100960.34;;;22.20;64.78
75006;BME280;63553;51.814;4.600;2023-06-19T02:07:52;100955.19;;;21.71;66.38
75006;BME280;63553;51.814;4.600;2023-06-19T02:10:18;100963.63;;;22.26;64.34
75006;BME280;63553;51.814;4.600;2023-06-19T02:12:43;100963.72;;;22.50;63.15
75006;BME280;63553;51.814;4.600;2023-06-19T02:15:09;100968.53;;;22.46;63.57
75006;BME280;63553;51.814;4.600;2023-06-19T02:17:34;100973.81;;;22.51;63.67
75006;BME280;63553;51.814;4.600;2023-06-19T02:20:00;100988.97;;;22.98;61.68
75006;BME280;63553;51.814;4.600;2023-06-19T02:22:25;100989.19;;;22.43;64.64
75006;BME280;63553;51.814;4.600;2023-06-19T02:24:51;100984.06;;;22.84;63.04
75006;BME280;63553;51.814;4.600;2023-06-19T02:27:16;100990.44;;;22.53;64.73
75006;BME280;63553;51.814;4.600;2023-06-19T02:29:41;100997.81;;;22.68;64.59
75006;BME280;63553;51.814;4.600;2023-06-19T02:32:07;100991.63;;;22.52;65.88
75006;BME280;63553;51.814;4.600;2023-06-19T02:34:32;101007.72;;;22.30;68.04
75006;BME280;63553;51.814;4.600;2023-06-19T02:36:58;101005.41;;;22.53;66.06
75006;BME280;63553;51.814;4.600;2023-06-19T02:39:24;101006.94;;;22.33;67.40
75006;BME280;63553;51.814;4.600;2023-06-19T02:44:14;101016.81;;;22.67;66.41
75006;BME280;63553;51.814;4.600;2023-06-19T02:46:40;101015.13;;;22.52;67.99
75006;BME280;63553;51.814;4.600;2023-06-19T02:49:05;101016.75;;;22.60;66.49
75006;BME280;63553;51.814;4.600;2023-06-19T02:51:30;101027.44;;;23.06;64.90
75006;BME280;63553;51.814;4.600;2023-06-19T02:53:56;101030.28;;;22.95;65.17
75006;BME280;63553;51.814;4.600;2023-06-19T02:56:22;101033.84;;;22.67;66.69
75006;BME280;63553;51.814;4.600;2023-06-19T02:58:47;101032.88;;;22.39;67.97
75006;BME280;63553;51.814;4.600;2023-06-19T03:01:13;101032.13;;;22.52;67.17
75006;BME280;63553;51.814;4.600;2023-06-19T03:03:38;101034.47;;;22.36;67.48
75006;BME280;63553;51.814;4.600;2023-06-19T03:06:07;101037.00;;;22.59;66.85
75006;BME280;63553;51.814;4.600;2023-06-19T03:08:36;101044.06;;;23.04;64.93
75006;BME280;63553;51.814;4.600;2023-06-19T03:11:02;101043.22;;;22.86;65.34
75006;BME280;63553;51.814;4.600;2023-06-19T03:13:52;101043.63;;;23.02;64.93
75006;BME280;63553;51.814;4.600;2023-06-19T03:16:18;101040.75;;;22.74;66.23
75006;BME280;63553;51.814;4.600;2023-06-19T03:18:44;101035.00;;;22.59;66.41
75006;BME280;63553;51.814;4.600;2023-06-19T03:21:10;101050.16;;;23.13;64.36
75006;BME280;63553;51.814;4.600;2023-06-19T03:23:36;101048.97;;;23.21;63.82
75006;BME280;63553;51.814;4.600;2023-06-19T03:26:01;101065.91;;;22.86;65.32
75006;BME280;63553;51.814;4.600;2023-06-19T03:28:27;101053.31;;;22.76;65.00
75006;BME280;63553;51.814;4.600;2023-06-19T03:30:52;101063.44;;;22.81;64.64
75006;BME280;63553;51.814;4.600;2023-06-19T03:33:17;101073.59;;;22.96;64.16
75006;BME280;63553;51.814;4.600;2023-06-19T03:35:43;101066.25;;;22.81;64.14
75006;BME280;63553;51.814;4.600;2023-06-19T03:38:08;101062.28;;;22.92;63.87
75006;BME280;63553;51.814;4.600;2023-06-19T03:40:33;101066.69;;;22.83;63.37
75006;BME280;63553;51.814;4.600;2023-06-19T03:42:59;101073.63;;;23.03;62.84
75006;BME280;63553;51.814;4.600;2023-06-19T03:45:24;101075.03;;;22.47;63.60
75006;BME280;63553;51.814;4.600;2023-06-19T03:47:49;101081.28;;;22.85;62.23
75006;BME280;63553;51.814;4.600;2023-06-19T03:50:15;101097.16;;;23.10;61.68
75006;BME280;63553;51.814;4.600;2023-06-19T03:52:40;101102.41;;;22.98;61.76
75006;BME280;63553;51.814;4.600;2023-06-19T03:55:06;101097.50;;;22.91;61.57
75006;BME280;63553;51.814;4.600;2023-06-19T03:57:31;101097.16;;;23.03;60.56
75006;BME280;63553;51.814;4.600;2023-06-19T03:59:56;101099.47;;;22.73;61.86
75006;BME280;63553;51.814;4.600;2023-06-19T04:02:22;101118.91;;;22.71;62.10
75006;BME280;63553;51.814;4.600;2023-06-19T04:04:47;101115.47;;;22.48;62.67
75006;BME280;63553;51.814;4.600;2023-06-19T04:07:13;101105.00;;;22.52;63.36
75006;BME280;63553;51.814;4.600;2023-06-19T04:09:39;101108.50;;;23.14;60.84
75006;BME280;63553;51.814;4.600;2023-06-19T04:12:04;101112.19;;;23.25;60.28
75006;BME280;63553;51.814;4.600;2023-06-19T04:14:30;101122.41;;;23.54;59.01
75006;BME280;63553;51.814;4.600;2023-06-19T04:16:55;101135.31;;;23.38;59.31
75006;BME280;63553;51.814;4.600;2023-06-19T04:19:20;101128.78;;;23.16;60.00
75006;BME280;63553;51.814;4.600;2023-06-19T04:21:46;101129.69;;;23.45;59.01
75006;BME280;63553;51.814;4.600;2023-06-19T04:24:11;101134.88;;;23.29;59.53
75006;BME280;63553;51.814;4.600;2023-06-19T04:26:36;101141.06;;;23.48;58.72
75006;BME280;63553;51.814;4.600;2023-06-19T04:29:02;101146.66;;;23.38;59.26
75006;BME280;63553;51.814;4.600;2023-06-19T04:31:28;101147.06;;;23.29;58.98
75006;BME280;63553;51.814;4.600;2023-06-19T04:33:54;101150.31;;;23.28;59.45
75006;BME280;63553;51.814;4.600;2023-06-19T04:36:22;101164.44;;;23.13;59.91
75006;BME280;63553;51.814;4.600;2023-06-19T04:38:47;101160.50;;;23.43;58.31
75006;BME280;63553;51.814;4.600;2023-06-19T04:41:12;101155.16;;;23.23;58.86
75006;BME280;63553;51.814;4.600;2023-06-19T04:43:38;101168.03;;;23.00;59.79
75006;BME280;63553;51.814;4.600;2023-06-19T04:46:06;101169.31;;;23.20;58.73
75006;BME280;63553;51.814;4.600;2023-06-19T04:48:32;101173.47;;;23.40;58.34
75006;BME280;63553;51.814;4.600;2023-06-19T04:50:57;101169.44;;;23.55;57.97
75006;BME280;63553;51.814;4.600;2023-06-19T04:53:22;101177.97;;;23.48;57.48
75006;BME280;63553;51.814;4.600;2023-06-19T04:55:48;101180.72;;;23.38;57.94
75006;BME280;63553;51.814;4.600;2023-06-19T04:58:14;101185.66;;;23.51;57.41
75006;BME280;63553;51.814;4.600;2023-06-19T05:00:40;101191.41;;;23.72;56.86
75006;BME280;63553;51.814;4.600;2023-06-19T05:03:05;101189.09;;;22.99;58.29
75006;BME280;63553;51.814;4.600;2023-06-19T05:05:30;101188.47;;;22.61;59.52
75006;BME280;63553;51.814;4.600;2023-06-19T05:07:56;101187.19;;;23.24;58.58
75006;BME280;63553;51.814;4.600;2023-06-19T05:10:21;101186.47;;;23.45;57.21
75006;BME280;63553;51.814;4.600;2023-06-19T05:12:46;101177.19;;;23.72;56.26
75006;BME280;63553;51.814;4.600;2023-06-19T05:15:12;101184.47;;;23.73;56.40
75006;BME280;63553;51.814;4.600;2023-06-19T05:17:37;101186.47;;;23.45;57.23
75006;BME280;63553;51.814;4.600;2023-06-19T05:20:04;101194.63;;;23.74;55.77
75006;BME280;63553;51.814;4.600;2023-06-19T05:22:32;101191.78;;;23.60;56.26
75006;BME280;63553;51.814;4.600;2023-06-19T05:24:59;101200.72;;;23.80;55.66
75006;BME280;63553;51.814;4.600;2023-06-19T05:27:24;101206.75;;;23.61;56.33
75006;BME280;63553;51.814;4.600;2023-06-19T05:29:49;101212.09;;;23.80;55.89
75006;BME280;63553;51.814;4.600;2023-06-19T05:32:15;101205.19;;;23.85;55.63
75006;BME280;63553;51.814;4.600;2023-06-19T05:34:40;101219.69;;;23.44;57.04
75006;BME280;63553;51.814;4.600;2023-06-19T05:37:05;101218.13;;;23.57;56.39
75006;BME280;63553;51.814;4.600;2023-06-19T05:39:30;101226.19;;;23.45;56.68
75006;BME280;63553;51.814;4.600;2023-06-19T05:41:56;101227.19;;;23.05;57.57
75006;BME280;63553;51.814;4.600;2023-06-19T05:44:21;101231.84;;;23.41;56.68
75006;BME280;63553;51.814;4.600;2023-06-19T05:46:47;101234.38;;;23.67;56.55
75006;BME280;63553;51.814;4.600;2023-06-19T05:49:12;101244.06;;;23.52;56.80
75006;BME280;63553;51.814;4.600;2023-06-19T05:51:37;101243.03;;;23.09;57.59
75006;BME280;63553;51.814;4.600;2023-06-19T05:54:03;101239.97;;;23.39;56.79
75006;BME280;63553;51.814;4.600;2023-06-19T05:56:32;101248.75;;;23.13;57.52
75006;BME280;63553;51.814;4.600;2023-06-19T05:59:01;101258.00;;;22.48;57.69
75006;BME280;63553;51.814;4.600;2023-06-19T06:01:26;101255.91;;;22.89;57.91
75006;BME280;63553;51.814;4.600;2023-06-19T06:03:56;101264.19;;;23.19;56.73
75006;BME280;63553;51.814;4.600;2023-06-19T06:06:23;101265.75;;;23.13;56.92
75006;BME280;63553;51.814;4.600;2023-06-19T06:08:49;101265.38;;;22.56;57.94
75006;BME280;63553;51.814;4.600;2023-06-19T06:11:14;101273.53;;;23.27;56.44
75006;BME280;63553;51.814;4.600;2023-06-19T06:13:40;101260.94;;;23.24;56.39
75006;BME280;63553;51.814;4.600;2023-06-19T06:16:05;101277.19;;;23.31;56.57
75006;BME280;63553;51.814;4.600;2023-06-19T06:18:30;101291.25;;;23.06;68.35
75006;BME280;63553;51.814;4.600;2023-06-19T06:20:56;101282.47;;;23.32;66.45
75006;BME280;63553;51.814;4.600;2023-06-19T06:23:21;101300.50;;;22.92;62.06
75006;BME280;63553;51.814;4.600;2023-06-19T06:25:46;101292.22;;;22.69;63.92
75006;BME280;63553;51.814;4.600;2023-06-19T06:28:12;101296.47;;;23.00;58.64
75006;BME280;63553;51.814;4.600;2023-06-19T06:30:37;101301.25;;;22.86;58.22
75006;BME280;63553;51.814;4.600;2023-06-19T06:33:04;101303.34;;;22.99;59.39
75006;BME280;63553;51.814;4.600;2023-06-19T06:35:29;101309.91;;;23.10;58.45
75006;BME280;63553;51.814;4.600;2023-06-19T06:37:55;101310.41;;;23.27;57.29
75006;BME280;63553;51.814;4.600;2023-06-19T06:40:20;101310.75;;;23.14;58.67
75006;BME280;63553;51.814;4.600;2023-06-19T06:42:45;101303.25;;;23.50;56.62
75006;BME280;63553;51.814;4.600;2023-06-19T06:45:12;101324.84;;;23.00;58.93
75006;BME280;63553;51.814;4.600;2023-06-19T06:47:37;101326.91;;;22.56;58.46
75006;BME280;63553;51.814;4.600;2023-06-19T06:50:05;101322.50;;;23.13;57.94
75006;BME280;63553;51.814;4.600;2023-06-19T06:52:31;101332.22;;;23.12;57.33
75006;BME280;63553;51.814;4.600;2023-06-19T06:54:57;101326.22;;;23.24;56.72
75006;BME280;63553;51.814;4.600;2023-06-19T06:57:22;101330.88;;;23.64;56.30
75006;BME280;63553;51.814;4.600;2023-06-19T06:59:47;101340.97;;;23.47;56.22
75006;BME280;63553;51.814;4.600;2023-06-19T07:02:13;101344.91;;;23.36;56.71
75006;BME280;63553;51.814;4.600;2023-06-19T07:04:38;101362.66;;;23.18;57.62
75006;BME280;63553;51.814;4.600;2023-06-19T07:07:03;101354.53;;;23.17;56.91
75006;BME280;63553;51.814;4.600;2023-06-19T07:09:31;101358.53;;;23.09;56.70
75006;BME280;63553;51.814;4.600;2023-06-19T07:11:56;101353.00;;;23.30;56.84
75006;BME280;63553;51.814;4.600;2023-06-19T07:14:22;101356.66;;;23.34;55.80
75006;BME280;63553;51.814;4.600;2023-06-19T07:16:48;101356.22;;;23.25;57.13
75006;BME280;63553;51.814;4.600;2023-06-19T07:19:14;101355.69;;;23.74;55.46
75006;BME280;63553;51.814;4.600;2023-06-19T07:21:40;101368.78;;;23.31;56.93
75006;BME280;63553;51.814;4.600;2023-06-19T07:24:05;101373.72;;;23.38;56.93
75006;BME280;63553;51.814;4.600;2023-06-19T07:26:31;101375.69;;;23.27;55.62
75006;BME280;63553;51.814;4.600;2023-06-19T07:28:57;101374.28;;;23.57;56.49
75006;BME280;63553;51.814;4.600;2023-06-19T07:31:22;101379.63;;;23.76;54.69
75006;BME280;63553;51.814;4.600;2023-06-19T07:33:48;101369.38;;;23.51;55.58
75006;BME280;63553;51.814;4.600;2023-06-19T07:36:13;101374.22;;;23.50;56.21
75006;BME280;63553;51.814;4.600;2023-06-19T07:38:43;101374.28;;;23.64;55.42
75006;BME280;63553;51.814;4.600;2023-06-19T07:41:08;101372.44;;;23.28;56.03
75006;BME280;63553;51.814;4.600;2023-06-19T07:43:35;101382.03;;;23.09;57.38
75006;BME280;63553;51.814;4.600;2023-06-19T07:46:01;101386.78;;;23.49;55.96
75006;BME280;63553;51.814;4.600;2023-06-19T07:48:27;101387.06;;;23.37;55.89
75006;BME280;63553;51.814;4.600;2023-06-19T07:50:53;101391.16;;;23.36;56.15
75006;BME280;63553;51.814;4.600;2023-06-19T07:53:19;101385.97;;;23.45;55.99
75006;BME280;63553;51.814;4.600;2023-06-19T07:55:44;101389.44;;;23.28;56.71
75006;BME280;63553;51.814;4.600;2023-06-19T07:58:09;101388.38;;;23.43;55.82
75006;BME280;63553;51.814;4.600;2023-06-19T08:00:35;101381.91;;;23.50;55.50
75006;BME280;63553;51.814;4.600;2023-06-19T08:03:00;101385.97;;;23.45;55.46
75006;BME280;63553;51.814;4.600;2023-06-19T08:05:26;101390.50;;;23.57;55.35
75006;BME280;63553;51.814;4.600;2023-06-19T08:07:51;101393.44;;;23.78;54.80
75006;BME280;63553;51.814;4.600;2023-06-19T08:10:16;101392.22;;;23.83;54.31
75006;BME280;63553;51.814;4.600;2023-06-19T08:12:43;101391.03;;;23.84;54.04
75006;BME280;63553;51.814;4.600;2023-06-19T08:15:09;101405.19;;;23.15;56.58
75006;BME280;63553;51.814;4.600;2023-06-19T08:17:35;101405.91;;;23.59;55.80
75006;BME280;63553;51.814;4.600;2023-06-19T08:20:00;101411.16;;;23.61;54.98
75006;BME280;63553;51.814;4.600;2023-06-19T08:22:26;101398.38;;;23.99;53.78
75006;BME280;63553;51.814;4.600;2023-06-19T08:24:51;101405.56;;;23.71;53.98
75006;BME280;63553;51.814;4.600;2023-06-19T08:27:16;101413.56;;;23.48;55.08
75006;BME280;63553;51.814;4.600;2023-06-19T08:29:42;101417.25;;;23.59;55.21
75006;BME280;63553;51.814;4.600;2023-06-19T08:32:08;101435.28;;;23.30;55.77
75006;BME280;63553;51.814;4.600;2023-06-19T08:34:34;101425.84;;;23.66;55.18
75006;BME280;63553;51.814;4.600;2023-06-19T08:37:00;101426.69;;;23.77;54.86
75006;BME280;63553;51.814;4.600;2023-06-19T08:39:25;101413.31;;;23.85;54.00
75006;BME280;63553;51.814;4.600;2023-06-19T08:41:51;101405.06;;;23.55;55.04
75006;BME280;63553;51.814;4.600;2023-06-19T08:44:18;101420.22;;;23.88;54.46
75006;BME280;63553;51.814;4.600;2023-06-19T08:46:43;101420.03;;;23.45;55.08
75006;BME280;63553;51.814;4.600;2023-06-19T08:49:10;101416.22;;;23.96;53.84
75006;BME280;63553;51.814;4.600;2023-06-19T08:51:36;101424.31;;;23.94;53.89
75006;BME280;63553;51.814;4.600;2023-06-19T08:54:06;101421.47;;;23.94;53.60
75006;BME280;63553;51.814;4.600;2023-06-19T08:56:32;101425.34;;;24.44;52.34
75006;BME280;63553;51.814;4.600;2023-06-19T08:59:17;101432.66;;;24.45;52.29
75006;BME280;63553;51.814;4.600;2023-06-19T09:01:50;101429.41;;;24.57;52.31
75006;BME280;63553;51.814;4.600;2023-06-19T09:04:19;101428.97;;;24.44;52.00
75006;BME280;63553;51.814;4.600;2023-06-19T09:06:56;101445.72;;;24.70;51.88
75006;BME280;63553;51.814;4.600;2023-06-19T09:09:23;101446.91;;;24.80;51.64
75006;BME280;63553;51.814;4.600;2023-06-19T09:12:06;101444.44;;;24.43;52.04
75006;BME280;63553;51.814;4.600;2023-06-19T09:14:42;101455.34;;;24.30;52.58
75006;BME280;63553;51.814;4.600;2023-06-19T09:17:12;101451.16;;;24.07;53.32
75006;BME280;63553;51.814;4.600;2023-06-19T09:19:38;101458.66;;;24.43;52.40
75006;BME280;63553;51.814;4.600;2023-06-19T09:22:12;101456.38;;;23.91;53.52
75006;BME280;63553;51.814;4.600;2023-06-19T09:24:39;101465.75;;;23.98;53.38
75006;BME280;63553;51.814;4.600;2023-06-19T09:27:17;101469.59;;;23.62;54.02
75006;BME280;63553;51.814;4.600;2023-06-19T09:29:46;101467.50;;;24.17;52.77
75006;BME280;63553;51.814;4.600;2023-06-19T09:32:26;101479.72;;;24.28;53.10
75006;BME280;63553;51.814;4.600;2023-06-19T09:34:53;101458.69;;;24.64;51.38
75006;BME280;63553;51.814;4.600;2023-06-19T09:37:24;101466.09;;;25.04;50.04
75006;BME280;63553;51.814;4.600;2023-06-19T09:39:57;101478.97;;;24.49;51.69
75006;BME280;63553;51.814;4.600;2023-06-19T09:42:34;101463.56;;;24.60;51.82
75006;BME280;63553;51.814;4.600;2023-06-19T09:45:05;101477.47;;;25.47;49.88
75006;BME280;63553;51.814;4.600;2023-06-19T09:47:36;101483.16;;;25.29;49.91
75006;BME280;63553;51.814;4.600;2023-06-19T09:50:03;101463.63;;;25.06;50.39
75006;BME280;63553;51.814;4.600;2023-06-19T09:52:29;101462.44;;;25.35;49.58
75006;BME280;63553;51.814;4.600;2023-06-19T09:54:55;101464.03;;;25.54;49.03
75006;BME280;63553;51.814;4.600;2023-06-19T09:57:21;101477.84;;;25.66;48.96
75006;BME280;63553;51.814;4.600;2023-06-19T09:59:51;101482.34;;;25.64;49.05
75006;BME280;63553;51.814;4.600;2023-06-19T10:02:19;101480.69;;;25.80;49.09
75006;BME280;63553;51.814;4.600;2023-06-19T10:04:54;101475.00;;;25.45;49.25
75006;BME280;63553;51.814;4.600;2023-06-19T10:07:33;101473.41;;;25.37;49.71
75006;BME280;63553;51.814;4.600;2023-06-19T10:10:04;101473.41;;;25.44;49.57
75006;BME280;63553;51.814;4.600;2023-06-19T10:12:36;101472.59;;;25.26;49.82
75006;BME280;63553;51.814;4.600;2023-06-19T10:17:42;101458.72;;;25.70;48.57
75006;BME280;63553;51.814;4.600;2023-06-19T10:20:50;101468.88;;;25.89;48.12
75006;BME280;63553;51.814;4.600;2023-06-19T10:23:17;101470.16;;;25.56;48.84
75006;BME280;63553;51.814;4.600;2023-06-19T10:25:48;101491.56;;;26.14;47.65
75006;BME280;63553;51.814;4.600;2023-06-19T10:28:32;101479.88;;;25.80;48.09
75006;BME280;63553;51.814;4.600;2023-06-19T10:31:00;101482.31;;;25.78;48.18
75006;BME280;63553;51.814;4.600;2023-06-19T10:33:29;101475.84;;;25.53;48.90
75006;BME280;63553;51.814;4.600;2023-06-19T10:35:56;101447.78;;;25.23;48.51
75006;BME280;63553;51.814;4.600;2023-06-19T10:38:21;101462.81;;;25.34;48.49
75006;BME280;63553;51.814;4.600;2023-06-19T10:40:47;101456.31;;;25.44;48.27
75006;BME280;63553;51.814;4.600;2023-06-19T10:43:20;101457.47;;;25.85;48.17
75006;BME280;63553;51.814;4.600;2023-06-19T10:45:49;101482.34;;;25.74;48.72
75006;BME280;63553;51.814;4.600;2023-06-19T10:48:24;101478.66;;;25.70;48.29
75006;BME280;63553;51.814;4.600;2023-06-19T10:50:49;101476.59;;;25.88;48.11
75006;BME280;63553;51.814;4.600;2023-06-19T10:53:32;101457.94;;;25.56;48.85
75006;BME280;63553;51.814;4.600;2023-06-19T10:56:02;101464.81;;;25.76;48.15
75006;BME280;63553;51.814;4.600;2023-06-19T10:58:28;101457.09;;;25.73;48.34
75006;BME280;63553;51.814;4.600;2023-06-19T11:00:54;101456.69;;;25.64;48.23
75006;BME280;63553;51.814;4.600;2023-06-19T11:03:20;101461.16;;;25.79;48.22
75006;BME280;63553;51.814;4.600;2023-06-19T11:05:47;101448.59;;;25.55;48.37
75006;BME280;63553;51.814;4.600;2023-06-19T11:08:20;101434.38;;;25.09;49.06
75006;BME280;63553;51.814;4.600;2023-06-19T11:10:46;101446.16;;;25.08;49.00
75006;BME280;63553;51.814;4.600;2023-06-19T11:13:15;101448.22;;;25.18;48.76
75006;BME280;63553;51.814;4.600;2023-06-19T11:15:42;101451.44;;;25.20;49.21
75006;BME280;63553;51.814;4.600;2023-06-19T11:18:11;101453.47;;;25.33;48.86
75006;BME280;63553;51.814;4.600;2023-06-19T11:20:50;101470.56;;;25.44;48.34
75006;BME280;63553;51.814;4.600;2023-06-19T11:23:17;101453.06;;;25.35;48.68
75006;BME280;63553;51.814;4.600;2023-06-19T11:25:43;101466.50;;;24.99;49.57
75006;BME280;63553;51.814;4.600;2023-06-19T11:28:16;101449.00;;;25.18;49.27
75006;BME280;63553;51.814;4.600;2023-06-19T11:30:47;101446.16;;;25.08;48.96
75006;BME280;63553;51.814;4.600;2023-06-19T11:33:20;101453.06;;;25.07;49.21
75006;BME280;63553;51.814;4.600;2023-06-19T11:35:48;101460.38;;;25.39;48.38
75006;BME280;63553;51.814;4.600;2023-06-19T11:38:25;101470.47;;;24.66;50.70
75006;BME280;63553;51.814;4.600;2023-06-19T11:40:55;101461.59;;;25.35;48.81
75006;BME280;63553;51.814;4.600;2023-06-19T11:46:01;101448.59;;;25.34;48.58
75006;BME280;63553;51.814;4.600;2023-06-19T11:48:27;101454.28;;;25.45;48.22
75006;BME280;63553;51.814;4.600;2023-06-19T11:50:53;101470.56;;;25.48;48.74
75006;BME280;63553;51.814;4.600;2023-06-19T11:53:20;101459.56;;;25.32;47.64
75006;BME280;63553;51.814;4.600;2023-06-19T11:55:46;101474.22;;;25.62;48.51
75006;BME280;63553;51.814;4.600;2023-06-19T11:58:12;101464.47;;;25.38;48.25
75006;BME280;63553;51.814;4.600;2023-06-19T12:00:37;101477.78;;;25.94;47.34
75006;BME280;63553;51.814;4.600;2023-06-19T12:03:04;101465.25;;;25.64;47.97
75006;BME280;63553;51.814;4.600;2023-06-19T12:05:30;101450.22;;;25.38;48.39
75006;BME280;63553;51.814;4.600;2023-06-19T12:07:55;101458.72;;;25.42;48.79
75006;BME280;63553;51.814;4.600;2023-06-19T12:10:21;101459.56;;;25.60;47.99
75006;BME280;63553;51.814;4.600;2023-06-19T12:12:46;101466.09;;;25.50;48.55
75006;BME280;63553;51.814;4.600;2023-06-19T12:15:13;101465.69;;;25.27;48.96
75006;BME280;63553;51.814;4.600;2023-06-19T12:17:38;101476.63;;;25.39;48.69
75006;BME280;63553;51.814;4.600;2023-06-19T12:20:07;101466.50;;;25.59;48.44
75006;BME280;63553;51.814;4.600;2023-06-19T12:22:34;101481.94;;;25.44;48.64
75006;BME280;63553;51.814;4.600;2023-06-19T12:25:00;101486.44;;;25.59;48.46
75006;BME280;63553;51.814;4.600;2023-06-19T12:27:26;101465.25;;;25.74;47.58
75006;BME280;63553;51.814;4.600;2023-06-19T12:29:52;101469.31;;;25.63;48.17
75006;BME280;63553;51.814;4.600;2023-06-19T12:32:17;101448.97;;;25.43;48.55
75006;BME280;63553;51.814;4.600;2023-06-19T12:34:43;101469.31;;;25.06;47.51
75006;BME280;63553;51.814;4.600;2023-06-19T12:37:15;101472.59;;;25.58;47.19
75006;BME280;63553;51.814;4.600;2023-06-19T12:39:43;101480.69;;;25.73;47.26
75006;BME280;63553;51.814;4.600;2023-06-19T12:42:09;101466.06;;;25.43;48.02
75006;BME280;63553;51.814;4.600;2023-06-19T12:44:38;101454.28;;;25.45;48.25
75006;BME280;63553;51.814;4.600;2023-06-19T12:47:04;101466.88;;;25.68;47.83
75006;BME280;63553;51.814;4.600;2023-06-19T12:49:30;101446.53;;;25.63;47.95
75006;BME280;63553;51.814;4.600;2023-06-19T12:51:55;101464.44;;;25.63;48.22
75006;BME280;63553;51.814;4.600;2023-06-19T12:54:21;101451.81;;;25.64;46.67
75006;BME280;63553;51.814;4.600;2023-06-19T12:56:46;101437.19;;;25.41;46.57